Terminal Aerodrome Forecast
Issued by NWS Pocatello, ID

Home | Current Version | Previous Version | Text Only | Print | Product List | Glossary On
Versions: 1 2 3 4 5 6 7 8 9 10 11 12 13 14 15 16 17 18 19 20 21 22 23 24
000
FTUS45 KPIH 312300
TAFBYI
TAF
KBYI 312325Z 0100/0124 28015KT P6SM FEW025
     FM010200 24007KT P6SM SKC
     FM010800 VRB03KT P6SM BKN015
     FM011600 VRB03KT P6SM FEW015 BKN100=

USA.gov is the U.S. government's official web portal to all federal, state and local government web resources and services.